sensor_id;sensor_type;location;lat;lon;timestamp;temperature;humidity
24408;DHT22;12542;50.924;4.516;2024-03-23T00:53:29;10.00;99.90
24408;DHT22;12542;50.924;4.516;2024-03-23T00:55:55;10.10;99.90
24408;DHT22;12542;50.924;4.516;2024-03-23T00:58:21;9.90;99.90
24408;DHT22;12542;50.924;4.516;2024-03-23T01:00:46;9.80;99.90
24408;DHT22;12542;50.924;4.516;2024-03-23T01:03:12;9.80;99.90
24408;DHT22;12542;50.924;4.516;2024-03-23T01:05:38;9.90;99.90
24408;DHT22;12542;50.924;4.516;2024-03-23T01:08:04;10.00;99.90
24408;DHT22;12542;50.924;4.516;2024-03-23T01:10:29;10.10;99.90
24408;DHT22;12542;50.924;4.516;2024-03-23T01:12:56;10.00;99.90
24408;DHT22;12542;50.924;4.516;2024-03-23T01:15:24;9.70;99.90
24408;DHT22;12542;50.924;4.516;2024-03-23T01:17:52;9.50;99.90
24408;DHT22;12542;50.924;4.516;2024-03-23T01:20:17;9.60;99.90
24408;DHT22;12542;50.924;4.516;2024-03-23T01:22:43;9.80;99.90
24408;DHT22;12542;50.924;4.516;2024-03-23T01:25:09;9.50;99.90
24408;DHT22;12542;50.924;4.516;2024-03-23T01:27:34;9.40;99.90
24408;DHT22;12542;50.924;4.516;2024-03-23T01:30:00;9.10;99.90
24408;DHT22;12542;50.924;4.516;2024-03-23T01:32:28;9.00;99.90
24408;DHT22;12542;50.924;4.516;2024-03-23T01:34:54;8.90;99.90
24408;DHT22;12542;50.924;4.516;2024-03-23T01:37:19;9.10;99.90
24408;DHT22;12542;50.924;4.516;2024-03-23T01:39:45;9.30;99.90
24408;DHT22;12542;50.924;4.516;2024-03-23T01:42:11;9.50;99.90
24408;DHT22;12542;50.924;4.516;2024-03-23T01:44:36;9.60;99.90
24408;DHT22;12542;50.924;4.516;2024-03-23T01:47:03;9.60;99.90
24408;DHT22;12542;50.924;4.516;2024-03-23T01:49:29;9.60;99.90
24408;DHT22;12542;50.924;4.516;2024-03-23T01:51:55;9.50;99.90
24408;DHT22;12542;50.924;4.516;2024-03-23T01:54:21;9.50;99.90
24408;DHT22;12542;50.924;4.516;2024-03-23T01:56:47;9.20;99.90
24408;DHT22;12542;50.924;4.516;2024-03-23T01:59:14;9.00;99.90
24408;DHT22;12542;50.924;4.516;2024-03-23T02:01:40;9.20;99.90
24408;DHT22;12542;50.924;4.516;2024-03-23T02:04:06;9.20;99.90
24408;DHT22;12542;50.924;4.516;2024-03-23T02:06:35;9.30;99.90
24408;DHT22;12542;50.924;4.516;2024-03-23T02:09:01;9.30;99.90
24408;DHT22;12542;50.924;4.516;2024-03-23T02:11:26;9.30;99.90
24408;DHT22;12542;50.924;4.516;2024-03-23T02:13:52;9.30;99.90
24408;DHT22;12542;50.924;4.516;2024-03-23T02:16:18;9.40;99.90
24408;DHT22;12542;50.924;4.516;2024-03-23T02:18:44;9.40;99.90
24408;DHT22;12542;50.924;4.516;2024-03-23T02:21:10;9.30;99.90
24408;DHT22;12542;50.924;4.516;2024-03-23T02:23:35;9.20;99.90
24408;DHT22;12542;50.924;4.516;2024-03-23T02:26:01;9.40;99.90
24408;DHT22;12542;50.924;4.516;2024-03-23T02:28:29;9.40;99.90
24408;DHT22;12542;50.924;4.516;2024-03-23T02:30:54;9.30;99.90
24408;DHT22;12542;50.924;4.516;2024-03-23T02:33:20;9.40;99.90
24408;DHT22;12542;50.924;4.516;2024-03-23T02:35:49;9.40;99.90
24408;DHT22;12542;50.924;4.516;2024-03-23T02:38:15;9.30;99.90
24408;DHT22;12542;50.924;4.516;2024-03-23T02:40:40;8.90;99.90
24408;DHT22;12542;50.924;4.516;2024-03-23T02:43:06;9.00;99.90
24408;DHT22;12542;50.924;4.516;2024-03-23T02:45:32;9.10;99.90
24408;DHT22;12542;50.924;4.516;2024-03-23T02:47:57;9.20;99.90
24408;DHT22;12542;50.924;4.516;2024-03-23T02:50:23;9.30;99.90
24408;DHT22;12542;50.924;4.516;2024-03-23T02:52:49;9.40;99.90
24408;DHT22;12542;50.924;4.516;2024-03-23T02:55:17;9.40;99.90
24408;DHT22;12542;50.924;4.516;2024-03-23T02:57:43;9.40;99.90
24408;DHT22;12542;50.924;4.516;2024-03-23T03:00:09;9.40;99.90
24408;DHT22;12542;50.924;4.516;2024-03-23T03:02:36;9.40;99.90
24408;DHT22;12542;50.924;4.516;2024-03-23T03:05:03;9.30;99.90
24408;DHT22;12542;50.924;4.516;2024-03-23T03:07:30;9.30;99.90
24408;DHT22;12542;50.924;4.516;2024-03-23T03:09:56;9.30;99.90
24408;DHT22;12542;50.924;4.516;2024-03-23T03:12:22;9.40;99.90
24408;DHT22;12542;50.924;4.516;2024-03-23T03:14:48;9.50;99.90
24408;DHT22;12542;50.924;4.516;2024-03-23T03:17:13;9.50;99.90
24408;DHT22;12542;50.924;4.516;2024-03-23T03:19:40;9.50;99.90
24408;DHT22;12542;50.924;4.516;2024-03-23T03:22:06;9.50;99.90
24408;DHT22;12542;50.924;4.516;2024-03-23T03:24:31;9.60;99.90
24408;DHT22;12542;50.924;4.516;2024-03-23T03:26:57;9.60;99.90
24408;DHT22;12542;50.924;4.516;2024-03-23T03:29:25;9.60;99.90
24408;DHT22;12542;50.924;4.516;2024-03-23T03:31:51;9.60;99.90
24408;DHT22;12542;50.924;4.516;2024-03-23T03:34:19;9.60;99.90
24408;DHT22;12542;50.924;4.516;2024-03-23T03:36:45;9.60;99.90
24408;DHT22;12542;50.924;4.516;2024-03-23T03:39:10;9.60;99.90
24408;DHT22;12542;50.924;4.516;2024-03-23T03:41:36;9.60;99.90
24408;DHT22;12542;50.924;4.516;2024-03-23T03:44:02;9.70;99.90
24408;DHT22;12542;50.924;4.516;2024-03-23T03:46:28;9.40;99.90
24408;DHT22;12542;50.924;4.516;2024-03-23T03:48:57;9.30;99.90
24408;DHT22;12542;50.924;4.516;2024-03-23T03:51:22;9.30;99.90
24408;DHT22;12542;50.924;4.516;2024-03-23T03:53:48;9.20;99.90
24408;DHT22;12542;50.924;4.516;2024-03-23T03:56:14;9.30;99.90
24408;DHT22;12542;50.924;4.516;2024-03-23T03:58:39;9.40;99.90
24408;DHT22;12542;50.924;4.516;2024-03-23T04:01:08;9.40;99.90
24408;DHT22;12542;50.924;4.516;2024-03-23T04:03:34;9.40;99.90
24408;DHT22;12542;50.924;4.516;2024-03-23T04:06:00;9.40;99.90
24408;DHT22;12542;50.924;4.516;2024-03-23T04:08:28;9.50;99.90
24408;DHT22;12542;50.924;4.516;2024-03-23T04:10:56;9.60;99.90
24408;DHT22;12542;50.924;4.516;2024-03-23T04:13:22;9.50;99.90
24408;DHT22;12542;50.924;4.516;2024-03-23T04:15:47;9.50;99.90
24408;DHT22;12542;50.924;4.516;2024-03-23T04:18:13;9.50;99.90
24408;DHT22;12542;50.924;4.516;2024-03-23T04:20:39;9.50;99.90
24408;DHT22;12542;50.924;4.516;2024-03-23T04:23:05;9.40;99.90
24408;DHT22;12542;50.924;4.516;2024-03-23T04:25:31;9.30;99.90
24408;DHT22;12542;50.924;4.516;2024-03-23T04:27:57;9.30;99.90
24408;DHT22;12542;50.924;4.516;2024-03-23T04:30:22;9.30;99.90
24408;DHT22;12542;50.924;4.516;2024-03-23T04:32:50;9.30;99.90
24408;DHT22;12542;50.924;4.516;2024-03-23T04:35:16;9.30;99.90
24408;DHT22;12542;50.924;4.516;2024-03-23T04:37:41;9.20;99.90
24408;DHT22;12542;50.924;4.516;2024-03-23T04:40:07;9.30;99.90
24408;DHT22;12542;50.924;4.516;2024-03-23T04:42:33;9.30;99.90
24408;DHT22;12542;50.924;4.516;2024-03-23T04:44:59;9.40;99.90
24408;DHT22;12542;50.924;4.516;2024-03-23T04:47:28;9.30;99.90
24408;DHT22;12542;50.924;4.516;2024-03-23T04:49:53;9.30;99.90
24408;DHT22;12542;50.924;4.516;2024-03-23T04:52:19;9.20;99.90
24408;DHT22;12542;50.924;4.516;2024-03-23T04:54:45;9.30;99.90
24408;DHT22;12542;50.924;4.516;2024-03-23T04:57:13;9.50;99.90
24408;DHT22;12542;50.924;4.516;2024-03-23T04:59:39;9.30;99.90
24408;DHT22;12542;50.924;4.516;2024-03-23T05:02:05;9.30;99.90
24408;DHT22;12542;50.924;4.516;2024-03-23T05:04:30;9.10;99.90
24408;DHT22;12542;50.924;4.516;2024-03-23T05:06:57;9.20;99.90
24408;DHT22;12542;50.924;4.516;2024-03-23T05:09:23;9.20;99.90
24408;DHT22;12542;50.924;4.516;2024-03-23T05:11:57;8.80;99.90
24408;DHT22;12542;50.924;4.516;2024-03-23T05:14:26;8.70;99.90
24408;DHT22;12542;50.924;4.516;2024-03-23T05:16:52;8.70;99.90
24408;DHT22;12542;50.924;4.516;2024-03-23T05:19:18;8.70;99.90
24408;DHT22;12542;50.924;4.516;2024-03-23T05:21:44;8.70;99.90
24408;DHT22;12542;50.924;4.516;2024-03-23T05:24:10;8.70;99.90
24408;DHT22;12542;50.924;4.516;2024-03-23T05:26:35;8.70;99.90
24408;DHT22;12542;50.924;4.516;2024-03-23T05:29:02;8.70;99.90
24408;DHT22;12542;50.924;4.516;2024-03-23T05:31:29;8.50;99.90
24408;DHT22;12542;50.924;4.516;2024-03-23T05:33:55;8.50;99.90
24408;DHT22;12542;50.924;4.516;2024-03-23T05:36:21;8.50;99.90
24408;DHT22;12542;50.924;4.516;2024-03-23T05:38:47;8.50;99.90
24408;DHT22;12542;50.924;4.516;2024-03-23T05:41:13;8.50;99.90
24408;DHT22;12542;50.924;4.516;2024-03-23T05:43:39;8.40;99.90
24408;DHT22;12542;50.924;4.516;2024-03-23T05:46:05;8.40;99.90
24408;DHT22;12542;50.924;4.516;2024-03-23T05:48:31;8.50;99.90
24408;DHT22;12542;50.924;4.516;2024-03-23T05:50:57;8.50;99.90
24408;DHT22;12542;50.924;4.516;2024-03-23T05:53:23;8.60;99.90
24408;DHT22;12542;50.924;4.516;2024-03-23T05:55:49;8.60;99.90
24408;DHT22;12542;50.924;4.516;2024-03-23T05:58:18;8.60;99.90
24408;DHT22;12542;50.924;4.516;2024-03-23T06:00:44;8.70;99.90
24408;DHT22;12542;50.924;4.516;2024-03-23T06:03:10;8.80;99.90
24408;DHT22;12542;50.924;4.516;2024-03-23T06:05:36;8.80;99.90
24408;DHT22;12542;50.924;4.516;2024-03-23T06:08:02;8.80;99.90
24408;DHT22;12542;50.924;4.516;2024-03-23T06:10:28;9.00;99.90
24408;DHT22;12542;50.924;4.516;2024-03-23T06:12:54;9.20;99.90
24408;DHT22;12542;50.924;4.516;2024-03-23T06:15:19;9.70;99.90
24408;DHT22;12542;50.924;4.516;2024-03-23T06:17:46;9.80;99.90
24408;DHT22;12542;50.924;4.516;2024-03-23T06:20:12;9.80;99.90
24408;DHT22;12542;50.924;4.516;2024-03-23T06:22:38;9.70;99.90
24408;DHT22;12542;50.924;4.516;2024-03-23T06:25:04;9.60;99.90
24408;DHT22;12542;50.924;4.516;2024-03-23T06:27:30;9.40;99.90
24408;DHT22;12542;50.924;4.516;2024-03-23T06:29:58;9.20;99.90
24408;DHT22;12542;50.924;4.516;2024-03-23T06:32:23;9.30;99.90
24408;DHT22;12542;50.924;4.516;2024-03-23T06:34:49;9.30;99.90
24408;DHT22;12542;50.924;4.516;2024-03-23T06:37:15;9.40;99.90
24408;DHT22;12542;50.924;4.516;2024-03-23T06:39:40;9.30;99.90
24408;DHT22;12542;50.924;4.516;2024-03-23T06:42:06;9.40;99.90
24408;DHT22;12542;50.924;4.516;2024-03-23T06:44:33;9.50;99.90
24408;DHT22;12542;50.924;4.516;2024-03-23T06:46:59;9.50;99.90
24408;DHT22;12542;50.924;4.516;2024-03-23T06:49:24;9.40;99.90
24408;DHT22;12542;50.924;4.516;2024-03-23T06:51:50;9.50;99.90
24408;DHT22;12542;50.924;4.516;2024-03-23T06:54:19;9.60;99.90
24408;DHT22;12542;50.924;4.516;2024-03-23T06:56:45;9.80;99.90
24408;DHT22;12542;50.924;4.516;2024-03-23T06:59:11;10.10;99.90
24408;DHT22;12542;50.924;4.516;2024-03-23T07:01:37;10.50;99.90
24408;DHT22;12542;50.924;4.516;2024-03-23T07:04:02;10.70;99.90
24408;DHT22;12542;50.924;4.516;2024-03-23T07:06:29;10.80;99.90
24408;DHT22;12542;50.924;4.516;2024-03-23T07:08:55;11.50;99.90
24408;DHT22;12542;50.924;4.516;2024-03-23T07:11:22;12.40;99.90
24408;DHT22;12542;50.924;4.516;2024-03-23T07:13:52;12.50;99.90
24408;DHT22;12542;50.924;4.516;2024-03-23T07:16:18;12.40;99.90
24408;DHT22;12542;50.924;4.516;2024-03-23T07:18:44;11.70;99.90
24408;DHT22;12542;50.924;4.516;2024-03-23T07:21:10;11.30;99.90
24408;DHT22;12542;50.924;4.516;2024-03-23T07:23:35;11.10;99.90
24408;DHT22;12542;50.924;4.516;2024-03-23T07:26:03;10.80;99.90
24408;DHT22;12542;50.924;4.516;2024-03-23T07:28:30;10.90;99.90
24408;DHT22;12542;50.924;4.516;2024-03-23T07:31:04;11.10;99.90
24408;DHT22;12542;50.924;4.516;2024-03-23T07:33:30;10.90;99.90
24408;DHT22;12542;50.924;4.516;2024-03-23T07:35:56;11.40;99.90
24408;DHT22;12542;50.924;4.516;2024-03-23T07:38:21;12.30;99.90
24408;DHT22;12542;50.924;4.516;2024-03-23T07:40:47;13.30;99.90
24408;DHT22;12542;50.924;4.516;2024-03-23T07:43:15;14.20;99.90
24408;DHT22;12542;50.924;4.516;2024-03-23T07:45:41;14.00;99.90
24408;DHT22;12542;50.924;4.516;2024-03-23T07:48:06;15.10;99.90
24408;DHT22;12542;50.924;4.516;2024-03-23T07:50:32;16.10;99.90
24408;DHT22;12542;50.924;4.516;2024-03-23T07:52:58;17.20;99.90
24408;DHT22;12542;50.924;4.516;2024-03-23T07:55:23;18.30;99.90
24408;DHT22;12542;50.924;4.516;2024-03-23T07:57:51;18.20;99.90
24408;DHT22;12542;50.924;4.516;2024-03-23T08:00:19;17.40;99.90
24408;DHT22;12542;50.924;4.516;2024-03-23T08:02:44;16.50;99.90
24408;DHT22;12542;50.924;4.516;2024-03-23T08:05:10;16.70;99.90
24408;DHT22;12542;50.924;4.516;2024-03-23T08:07:36;17.30;99.90
24408;DHT22;12542;50.924;4.516;2024-03-23T08:10:01;18.10;99.90
24408;DHT22;12542;50.924;4.516;2024-03-23T08:12:28;19.00;99.90
24408;DHT22;12542;50.924;4.516;2024-03-23T08:14:54;18.70;99.90
24408;DHT22;12542;50.924;4.516;2024-03-23T08:17:20;18.50;99.90
24408;DHT22;12542;50.924;4.516;2024-03-23T08:19:45;18.60;99.90
24408;DHT22;12542;50.924;4.516;2024-03-23T08:22:11;18.60;99.90
24408;DHT22;12542;50.924;4.516;2024-03-23T08:24:37;18.20;99.90
24408;DHT22;12542;50.924;4.516;2024-03-23T08:27:02;18.60;99.90
24408;DHT22;12542;50.924;4.516;2024-03-23T08:29:30;18.10;99.90
24408;DHT22;12542;50.924;4.516;2024-03-23T08:31:55;17.90;99.90
24408;DHT22;12542;50.924;4.516;2024-03-23T08:34:21;17.50;99.90
24408;DHT22;12542;50.924;4.516;2024-03-23T08:36:47;16.50;99.90
24408;DHT22;12542;50.924;4.516;2024-03-23T08:39:13;15.80;99.90
24408;DHT22;12542;50.924;4.516;2024-03-23T08:41:39;15.00;99.90
24408;DHT22;12542;50.924;4.516;2024-03-23T08:44:05;15.00;99.90
24408;DHT22;12542;50.924;4.516;2024-03-23T08:46:30;14.80;99.90
24408;DHT22;12542;50.924;4.516;2024-03-23T08:48:56;14.80;99.90
24408;DHT22;12542;50.924;4.516;2024-03-23T08:51:22;14.00;99.90
24408;DHT22;12542;50.924;4.516;2024-03-23T08:53:47;13.60;99.90
24408;DHT22;12542;50.924;4.516;2024-03-23T08:56:13;13.30;99.90
24408;DHT22;12542;50.924;4.516;2024-03-23T08:58:39;13.30;99.90
24408;DHT22;12542;50.924;4.516;2024-03-23T09:01:12;13.50;99.90
24408;DHT22;12542;50.924;4.516;2024-03-23T09:03:38;14.10;99.90
24408;DHT22;12542;50.924;4.516;2024-03-23T09:06:12;14.70;99.90
24408;DHT22;12542;50.924;4.516;2024-03-23T09:08:39;15.00;99.90
24408;DHT22;12542;50.924;4.516;2024-03-23T09:11:11;14.40;99.90
24408;DHT22;12542;50.924;4.516;2024-03-23T09:13:37;14.60;99.90
24408;DHT22;12542;50.924;4.516;2024-03-23T09:16:04;14.80;99.90
24408;DHT22;12542;50.924;4.516;2024-03-23T09:18:32;15.10;99.90
24408;DHT22;12542;50.924;4.516;2024-03-23T09:20:58;15.20;99.90
24408;DHT22;12542;50.924;4.516;2024-03-23T09:23:25;15.30;99.90
24408;DHT22;12542;50.924;4.516;2024-03-23T09:25:51;15.90;99.90
24408;DHT22;12542;50.924;4.516;2024-03-23T09:28:17;15.80;99.90
24408;DHT22;12542;50.924;4.516;2024-03-23T09:30:43;15.00;99.90
24408;DHT22;12542;50.924;4.516;2024-03-23T09:33:09;15.00;99.90
24408;DHT22;12542;50.924;4.516;2024-03-23T09:35:38;14.30;99.90
24408;DHT22;12542;50.924;4.516;2024-03-23T09:38:04;13.70;99.90
24408;DHT22;12542;50.924;4.516;2024-03-23T09:40:31;13.70;99.90
24408;DHT22;12542;50.924;4.516;2024-03-23T09:42:57;14.30;99.90
24408;DHT22;12542;50.924;4.516;2024-03-23T09:45:28;14.00;99.90
24408;DHT22;12542;50.924;4.516;2024-03-23T09:47:55;14.00;99.90
24408;DHT22;12542;50.924;4.516;2024-03-23T09:50:21;14.60;99.90
24408;DHT22;12542;50.924;4.516;2024-03-23T09:52:47;15.40;99.90
24408;DHT22;12542;50.924;4.516;2024-03-23T09:55:13;16.00;99.90
24408;DHT22;12542;50.924;4.516;2024-03-23T09:57:42;15.90;99.90
24408;DHT22;12542;50.924;4.516;2024-03-23T10:00:08;15.30;99.90
24408;DHT22;12542;50.924;4.516;2024-03-23T10:02:34;15.00;99.90
24408;DHT22;12542;50.924;4.516;2024-03-23T10:05:00;14.80;99.90
24408;DHT22;12542;50.924;4.516;2024-03-23T10:07:26;14.10;99.90
24408;DHT22;12542;50.924;4.516;2024-03-23T10:09:54;13.90;99.90
24408;DHT22;12542;50.924;4.516;2024-03-23T10:12:20;13.90;99.90
24408;DHT22;12542;50.924;4.516;2024-03-23T10:14:46;13.80;99.90
24408;DHT22;12542;50.924;4.516;2024-03-23T10:17:19;14.00;99.90
24408;DHT22;12542;50.924;4.516;2024-03-23T10:22:14;14.40;99.90
24408;DHT22;12542;50.924;4.516;2024-03-23T10:24:43;14.10;99.90
24408;DHT22;12542;50.924;4.516;2024-03-23T10:27:09;13.60;99.90
24408;DHT22;12542;50.924;4.516;2024-03-23T10:29:35;13.60;99.90
24408;DHT22;12542;50.924;4.516;2024-03-23T10:32:11;13.60;99.90
24408;DHT22;12542;50.924;4.516;2024-03-23T10:34:39;13.80;99.90
24408;DHT22;12542;50.924;4.516;2024-03-23T10:37:06;14.10;99.90
24408;DHT22;12542;50.924;4.516;2024-03-23T10:39:39;14.10;99.90
24408;DHT22;12542;50.924;4.516;2024-03-23T10:42:07;13.80;99.90
24408;DHT22;12542;50.924;4.516;2024-03-23T10:44:33;13.30;99.90
24408;DHT22;12542;50.924;4.516;2024-03-23T10:47:03;13.50;99.90
24408;DHT22;12542;50.924;4.516;2024-03-23T10:49:30;13.50;99.90
24408;DHT22;12542;50.924;4.516;2024-03-23T10:52:05;14.20;99.90
24408;DHT22;12542;50.924;4.516;2024-03-23T10:54:32;14.80;99.90
24408;DHT22;12542;50.924;4.516;2024-03-23T10:57:14;14.90;99.90
24408;DHT22;12542;50.924;4.516;2024-03-23T10:59:40;15.20;99.90
24408;DHT22;12542;50.924;4.516;2024-03-23T11:02:07;15.70;99.90
24408;DHT22;12542;50.924;4.516;2024-03-23T11:04:43;15.90;99.90
24408;DHT22;12542;50.924;4.516;2024-03-23T11:07:41;16.10;99.90
24408;DHT22;12542;50.924;4.516;2024-03-23T11:10:31;16.20;99.90
24408;DHT22;12542;50.924;4.516;2024-03-23T11:13:21;15.50;99.90
24408;DHT22;12542;50.924;4.516;2024-03-23T11:15:44;15.10;99.90
24408;DHT22;12542;50.924;4.516;2024-03-23T11:18:09;14.90;99.90
24408;DHT22;12542;50.924;4.516;2024-03-23T11:20:36;14.80;99.90
24408;DHT22;12542;50.924;4.516;2024-03-23T11:23:02;14.70;99.90
24408;DHT22;12542;50.924;4.516;2024-03-23T11:25:28;14.60;99.90
24408;DHT22;12542;50.924;4.516;2024-03-23T11:27:56;14.90;99.90
24408;DHT22;12542;50.924;4.516;2024-03-23T11:30:27;15.30;99.10
24408;DHT22;12542;50.924;4.516;2024-03-23T11:32:57;15.60;99.30
24408;DHT22;12542;50.924;4.516;2024-03-23T11:35:32;16.00;98.30
24408;DHT22;12542;50.924;4.516;2024-03-23T11:38:19;15.90;97.60
24408;DHT22;12542;50.924;4.516;2024-03-23T11:40:47;15.50;99.90
24408;DHT22;12542;50.924;4.516;2024-03-23T11:43:21;14.60;99.90
24408;DHT22;12542;50.924;4.516;2024-03-23T11:45:49;13.80;99.90
24408;DHT22;12542;50.924;4.516;2024-03-23T11:48:21;13.40;99.90
24408;DHT22;12542;50.924;4.516;2024-03-23T11:50:53;13.60;99.90
24408;DHT22;12542;50.924;4.516;2024-03-23T11:53:23;14.20;99.90
24408;DHT22;12542;50.924;4.516;2024-03-23T11:55:57;14.70;99.90
24408;DHT22;12542;50.924;4.516;2024-03-23T11:58:25;14.90;99.90
24408;DHT22;12542;50.924;4.516;2024-03-23T12:01:01;14.70;99.90
24408;DHT22;12542;50.924;4.516;2024-03-23T12:03:29;14.50;99.90
24408;DHT22;12542;50.924;4.516;2024-03-23T12:05:57;14.00;99.90
24408;DHT22;12542;50.924;4.516;2024-03-23T12:11:16;14.00;99.90
24408;DHT22;12542;50.924;4.516;2024-03-23T12:13:43;14.20;99.90
24408;DHT22;12542;50.924;4.516;2024-03-23T12:16:17;14.30;99.90
24408;DHT22;12542;50.924;4.516;2024-03-23T12:18:44;14.40;99.90
24408;DHT22;12542;50.924;4.516;2024-03-23T12:21:10;14.90;99.90
24408;DHT22;12542;50.924;4.516;2024-03-23T12:23:38;14.60;99.90
24408;DHT22;12542;50.924;4.516;2024-03-23T12:26:04;14.40;99.90
24408;DHT22;12542;50.924;4.516;2024-03-23T12:28:29;14.30;99.90
24408;DHT22;12542;50.924;4.516;2024-03-23T12:30:55;14.20;99.90
24408;DHT22;12542;50.924;4.516;2024-03-23T12:33:21;14.30;99.90
24408;DHT22;12542;50.924;4.516;2024-03-23T12:35:50;13.90;99.90
24408;DHT22;12542;50.924;4.516;2024-03-23T12:38:16;14.00;99.90
24408;DHT22;12542;50.924;4.516;2024-03-23T12:40:46;14.10;99.90
24408;DHT22;12542;50.924;4.516;2024-03-23T12:43:13;14.30;99.90
24408;DHT22;12542;50.924;4.516;2024-03-23T12:45:39;14.40;99.90
24408;DHT22;12542;50.924;4.516;2024-03-23T12:48:05;14.50;99.90
24408;DHT22;12542;50.924;4.516;2024-03-23T12:50:30;14.50;99.90
24408;DHT22;12542;50.924;4.516;2024-03-23T12:52:56;14.30;99.90
24408;DHT22;12542;50.924;4.516;2024-03-23T12:55:22;14.30;99.90
24408;DHT22;12542;50.924;4.516;2024-03-23T12:57:48;14.40;99.90
24408;DHT22;12542;50.924;4.516;2024-03-23T13:00:16;14.60;99.90
24408;DHT22;12542;50.924;4.516;2024-03-23T13:02:42;14.30;99.50
24408;DHT22;12542;50.924;4.516;2024-03-23T13:05:08;14.40;98.80
24408;DHT22;12542;50.924;4.516;2024-03-23T13:07:34;14.40;99.90
24408;DHT22;12542;50.924;4.516;2024-03-23T13:10:01;14.60;99.90
24408;DHT22;12542;50.924;4.516;2024-03-23T13:12:27;14.00;99.70
24408;DHT22;12542;50.924;4.516;2024-03-23T13:14:53;14.10;99.10
24408;DHT22;12542;50.924;4.516;2024-03-23T13:17:18;14.40;99.90
24408;DHT22;12542;50.924;4.516;2024-03-23T13:19:44;14.00;98.00
24408;DHT22;12542;50.924;4.516;2024-03-23T13:22:10;13.70;99.90
24408;DHT22;12542;50.924;4.516;2024-03-23T13:24:37;13.20;99.90
24408;DHT22;12542;50.924;4.516;2024-03-23T13:27:03;12.30;99.90
24408;DHT22;12542;50.924;4.516;2024-03-23T13:29:30;12.10;99.90
24408;DHT22;12542;50.924;4.516;2024-03-23T13:31:55;12.00;99.90
24408;DHT22;12542;50.924;4.516;2024-03-23T13:34:21;11.90;99.90
24408;DHT22;12542;50.924;4.516;2024-03-23T13:36:47;11.70;99.90
24408;DHT22;12542;50.924;4.516;2024-03-23T13:39:14;11.80;99.90
24408;DHT22;12542;50.924;4.516;2024-03-23T13:41:44;11.80;99.90
24408;DHT22;12542;50.924;4.516;2024-03-23T13:44:13;11.90;99.90
24408;DHT22;12542;50.924;4.516;2024-03-23T13:46:43;12.20;99.90
24408;DHT22;12542;50.924;4.516;2024-03-23T13:49:28;12.40;99.90
24408;DHT22;12542;50.924;4.516;2024-03-23T13:51:55;12.80;99.90
24408;DHT22;12542;50.924;4.516;2024-03-23T13:54:22;12.50;99.90
24408;DHT22;12542;50.924;4.516;2024-03-23T13:56:50;12.20;99.90
24408;DHT22;12542;50.924;4.516;2024-03-23T13:59:16;12.10;99.90
24408;DHT22;12542;50.924;4.516;2024-03-23T14:01:42;12.10;99.90
24408;DHT22;12542;50.924;4.516;2024-03-23T14:04:08;12.10;99.90
24408;DHT22;12542;50.924;4.516;2024-03-23T14:06:35;11.90;99.90
24408;DHT22;12542;50.924;4.516;2024-03-23T14:09:00;11.50;99.90
24408;DHT22;12542;50.924;4.516;2024-03-23T14:11:26;11.30;99.90
24408;DHT22;12542;50.924;4.516;2024-03-23T14:13:56;11.20;99.90
24408;DHT22;12542;50.924;4.516;2024-03-23T14:16:21;11.10;99.90
24408;DHT22;12542;50.924;4.516;2024-03-23T14:18:47;10.90;99.90
24408;DHT22;12542;50.924;4.516;2024-03-23T14:21:13;10.70;99.90
24408;DHT22;12542;50.924;4.516;2024-03-23T14:23:38;10.90;99.90
24408;DHT22;12542;50.924;4.516;2024-03-23T14:26:06;11.30;99.90
24408;DHT22;12542;50.924;4.516;2024-03-23T14:28:32;11.30;99.90
24408;DHT22;12542;50.924;4.516;2024-03-23T14:30:57;11.60;99.90
24408;DHT22;12542;50.924;4.516;2024-03-23T14:33:24;11.90;99.90
24408;DHT22;12542;50.924;4.516;2024-03-23T14:35:56;12.20;99.90
24408;DHT22;12542;50.924;4.516;2024-03-23T14:38:25;12.30;99.90
24408;DHT22;12542;50.924;4.516;2024-03-23T14:40:50;12.50;99.90
24408;DHT22;12542;50.924;4.516;2024-03-23T14:43:19;12.80;99.90
24408;DHT22;12542;50.924;4.516;2024-03-23T14:48:30;12.90;99.90
24408;DHT22;12542;50.924;4.516;2024-03-23T14:50:57;13.00;99.90
24408;DHT22;12542;50.924;4.516;2024-03-23T14:53:22;13.10;99.90
24408;DHT22;12542;50.924;4.516;2024-03-23T14:55:48;13.10;99.90
24408;DHT22;12542;50.924;4.516;2024-03-23T14:58:14;13.10;99.90
24408;DHT22;12542;50.924;4.516;2024-03-23T15:00:40;13.10;99.90
24408;DHT22;12542;50.924;4.516;2024-03-23T15:03:06;13.00;99.90
24408;DHT22;12542;50.924;4.516;2024-03-23T15:05:31;12.70;99.90
24408;DHT22;12542;50.924;4.516;2024-03-23T15:07:57;12.80;99.90
24408;DHT22;12542;50.924;4.516;2024-03-23T15:10:23;12.80;99.90
24408;DHT22;12542;50.924;4.516;2024-03-23T15:12:49;12.70;99.90
24408;DHT22;12542;50.924;4.516;2024-03-23T15:15:15;12.70;99.90
24408;DHT22;12542;50.924;4.516;2024-03-23T15:17:40;12.70;99.90
24408;DHT22;12542;50.924;4.516;2024-03-23T15:20:10;12.50;99.90
24408;DHT22;12542;50.924;4.516;2024-03-23T15:22:37;12.20;99.90
24408;DHT22;12542;50.924;4.516;2024-03-23T15:25:03;11.90;99.90
24408;DHT22;12542;50.924;4.516;2024-03-23T15:27:28;12.00;99.90
24408;DHT22;12542;50.924;4.516;2024-03-23T15:29:56;12.20;99.90
24408;DHT22;12542;50.924;4.516;2024-03-23T15:32:23;12.40;99.90
24408;DHT22;12542;50.924;4.516;2024-03-23T15:34:48;12.50;99.90
24408;DHT22;12542;50.924;4.516;2024-03-23T15:37:14;12.70;99.90
24408;DHT22;12542;50.924;4.516;2024-03-23T15:39:40;12.90;99.90
24408;DHT22;12542;50.924;4.516;2024-03-23T15:42:10;12.70;99.90
24408;DHT22;12542;50.924;4.516;2024-03-23T15:44:36;12.60;99.90
24408;DHT22;12542;50.924;4.516;2024-03-23T15:47:01;12.90;99.90
24408;DHT22;12542;50.924;4.516;2024-03-23T15:49:27;12.70;99.90
24408;DHT22;12542;50.924;4.516;2024-03-23T15:51:53;12.50;99.90
24408;DHT22;12542;50.924;4.516;2024-03-23T15:54:19;12.50;99.90
24408;DHT22;12542;50.924;4.516;2024-03-23T15:56:45;12.50;99.90
24408;DHT22;12542;50.924;4.516;2024-03-23T15:59:13;12.20;99.90
24408;DHT22;12542;50.924;4.516;2024-03-23T16:01:39;12.20;99.90
24408;DHT22;12542;50.924;4.516;2024-03-23T16:04:04;12.30;99.90
24408;DHT22;12542;50.924;4.516;2024-03-23T16:06:30;12.00;99.90
24408;DHT22;12542;50.924;4.516;2024-03-23T16:08:56;11.90;99.90
24408;DHT22;12542;50.924;4.516;2024-03-23T16:11:22;11.80;99.90
24408;DHT22;12542;50.924;4.516;2024-03-23T16:13:50;11.80;99.90
24408;DHT22;12542;50.924;4.516;2024-03-23T16:16:15;11.70;99.90
24408;DHT22;12542;50.924;4.516;2024-03-23T16:18:41;11.70;99.90
24408;DHT22;12542;50.924;4.516;2024-03-23T16:21:11;11.40;99.90
24408;DHT22;12542;50.924;4.516;2024-03-23T16:23:36;11.40;99.90
24408;DHT22;12542;50.924;4.516;2024-03-23T16:26:07;11.40;99.90
24408;DHT22;12542;50.924;4.516;2024-03-23T16:28:34;11.30;99.90
24408;DHT22;12542;50.924;4.516;2024-03-23T16:33:30;11.30;99.90
24408;DHT22;12542;50.924;4.516;2024-03-23T16:35:59;11.20;99.90
24408;DHT22;12542;50.924;4.516;2024-03-23T16:38:26;11.30;99.90